sensor_id;sensor_type;location;lat;lon;timestamp;P1;durP1;ratioP1;P2;durP2;ratioP2
5458;SDS011;2752;49.992;8.422;2022-10-17T00:00:08;20.53;;;8.60;;
5458;SDS011;2752;49.992;8.422;2022-10-17T00:02:37;18.23;;;8.27;;
5458;SDS011;2752;49.992;8.422;2022-10-17T00:05:04;13.13;;;8.73;;
5458;SDS011;2752;49.992;8.422;2022-10-17T00:07:31;17.20;;;8.00;;
5458;SDS011;2752;49.992;8.422;2022-10-17T00:09:58;14.40;;;8.77;;
5458;SDS011;2752;49.992;8.422;2022-10-17T00:12:24;20.73;;;8.83;;
5458;SDS011;2752;49.992;8.422;2022-10-17T00:14:51;20.27;;;9.07;;
5458;SDS011;2752;49.992;8.422;2022-10-17T00:17:18;20.40;;;8.13;;
5458;SDS011;2752;49.992;8.422;2022-10-17T00:19:46;17.50;;;7.43;;
5458;SDS011;2752;49.992;8.422;2022-10-17T00:22:12;16.40;;;8.20;;
5458;SDS011;2752;49.992;8.422;2022-10-17T00:24:39;18.17;;;7.87;;
5458;SDS011;2752;49.992;8.422;2022-10-17T00:27:06;19.03;;;7.80;;
5458;SDS011;2752;49.992;8.422;2022-10-17T00:29:33;16.63;;;7.40;;
5458;SDS011;2752;49.992;8.422;2022-10-17T00:31:59;13.07;;;7.13;;
5458;SDS011;2752;49.992;8.422;2022-10-17T00:34:27;11.60;;;7.60;;
5458;SDS011;2752;49.992;8.422;2022-10-17T00:36:56;13.13;;;7.63;;
5458;SDS011;2752;49.992;8.422;2022-10-17T00:39:23;16.30;;;7.60;;
5458;SDS011;2752;49.992;8.422;2022-10-17T00:41:50;14.20;;;7.40;;
5458;SDS011;2752;49.992;8.422;2022-10-17T00:47:35;13.73;;;7.00;;
5458;SDS011;2752;49.992;8.422;2022-10-17T00:50:02;21.23;;;7.07;;
5458;SDS011;2752;49.992;8.422;2022-10-17T00:52:31;12.40;;;8.10;;
5458;SDS011;2752;49.992;8.422;2022-10-17T00:55:00;15.97;;;8.80;;
5458;SDS011;2752;49.992;8.422;2022-10-17T00:57:31;25.10;;;7.50;;
5458;SDS011;2752;49.992;8.422;2022-10-17T00:59:58;12.40;;;7.20;;
5458;SDS011;2752;49.992;8.422;2022-10-17T01:02:29;14.50;;;6.97;;
5458;SDS011;2752;49.992;8.422;2022-10-17T01:04:55;16.07;;;7.03;;
5458;SDS011;2752;49.992;8.422;2022-10-17T01:07:24;13.80;;;6.67;;
5458;SDS011;2752;49.992;8.422;2022-10-17T01:09:53;23.13;;;7.50;;
5458;SDS011;2752;49.992;8.422;2022-10-17T01:12:21;15.77;;;6.83;;
5458;SDS011;2752;49.992;8.422;2022-10-17T01:14:57;12.23;;;7.10;;
5458;SDS011;2752;49.992;8.422;2022-10-17T01:17:32;12.47;;;7.77;;
5458;SDS011;2752;49.992;8.422;2022-10-17T01:20:22;12.70;;;7.50;;
5458;SDS011;2752;49.992;8.422;2022-10-17T01:23:26;14.37;;;7.70;;
5458;SDS011;2752;49.992;8.422;2022-10-17T01:26:07;13.47;;;7.30;;
5458;SDS011;2752;49.992;8.422;2022-10-17T01:28:46;19.70;;;7.10;;
5458;SDS011;2752;49.992;8.422;2022-10-17T01:31:35;16.27;;;7.57;;
5458;SDS011;2752;49.992;8.422;2022-10-17T01:34:10;19.80;;;7.47;;
5458;SDS011;2752;49.992;8.422;2022-10-17T01:36:42;13.50;;;7.20;;
5458;SDS011;2752;49.992;8.422;2022-10-17T01:39:16;18.20;;;7.60;;
5458;SDS011;2752;49.992;8.422;2022-10-17T01:41:49;18.33;;;9.63;;
5458;SDS011;2752;49.992;8.422;2022-10-17T01:44:25;13.00;;;6.23;;
5458;SDS011;2752;49.992;8.422;2022-10-17T01:47:00;17.07;;;7.87;;
5458;SDS011;2752;49.992;8.422;2022-10-17T01:49:30;13.03;;;7.23;;
5458;SDS011;2752;49.992;8.422;2022-10-17T01:51:59;11.47;;;6.07;;
5458;SDS011;2752;49.992;8.422;2022-10-17T01:54:29;12.20;;;7.60;;
5458;SDS011;2752;49.992;8.422;2022-10-17T01:57:00;12.43;;;6.80;;
5458;SDS011;2752;49.992;8.422;2022-10-17T01:59:33;15.27;;;6.47;;
5458;SDS011;2752;49.992;8.422;2022-10-17T02:02:06;11.13;;;6.50;;
5458;SDS011;2752;49.992;8.422;2022-10-17T02:04:34;12.47;;;7.60;;
5458;SDS011;2752;49.992;8.422;2022-10-17T02:07:05;19.43;;;7.27;;
5458;SDS011;2752;49.992;8.422;2022-10-17T02:09:32;15.47;;;7.97;;
5458;SDS011;2752;49.992;8.422;2022-10-17T02:15:01;11.47;;;7.00;;
5458;SDS011;2752;49.992;8.422;2022-10-17T02:17:41;15.13;;;7.43;;
5458;SDS011;2752;49.992;8.422;2022-10-17T02:20:16;12.77;;;6.70;;
5458;SDS011;2752;49.992;8.422;2022-10-17T02:22:50;13.40;;;6.67;;
5458;SDS011;2752;49.992;8.422;2022-10-17T02:25:22;17.20;;;6.90;;
5458;SDS011;2752;49.992;8.422;2022-10-17T02:27:58;13.83;;;7.07;;
5458;SDS011;2752;49.992;8.422;2022-10-17T02:30:33;17.70;;;6.80;;
5458;SDS011;2752;49.992;8.422;2022-10-17T02:33:06;13.37;;;6.63;;
5458;SDS011;2752;49.992;8.422;2022-10-17T02:35:37;14.20;;;6.60;;
5458;SDS011;2752;49.992;8.422;2022-10-17T02:38:06;15.40;;;6.97;;
5458;SDS011;2752;49.992;8.422;2022-10-17T02:40:35;13.43;;;6.80;;
5458;SDS011;2752;49.992;8.422;2022-10-17T02:43:03;20.00;;;7.43;;
5458;SDS011;2752;49.992;8.422;2022-10-17T02:45:30;13.77;;;7.60;;
5458;SDS011;2752;49.992;8.422;2022-10-17T02:48:01;13.10;;;6.47;;
5458;SDS011;2752;49.992;8.422;2022-10-17T02:50:34;15.63;;;7.53;;
5458;SDS011;2752;49.992;8.422;2022-10-17T02:53:09;13.87;;;6.47;;
5458;SDS011;2752;49.992;8.422;2022-10-17T02:55:41;49.27;;;27.17;;
5458;SDS011;2752;49.992;8.422;2022-10-17T02:58:12;17.93;;;12.17;;
5458;SDS011;2752;49.992;8.422;2022-10-17T03:00:44;24.03;;;10.13;;
5458;SDS011;2752;49.992;8.422;2022-10-17T03:03:18;21.13;;;8.87;;
5458;SDS011;2752;49.992;8.422;2022-10-17T03:05:48;11.40;;;8.23;;
5458;SDS011;2752;49.992;8.422;2022-10-17T03:08:15;13.17;;;7.97;;
5458;SDS011;2752;49.992;8.422;2022-10-17T03:10:41;20.73;;;7.07;;
5458;SDS011;2752;49.992;8.422;2022-10-17T03:13:08;10.27;;;7.27;;
5458;SDS011;2752;49.992;8.422;2022-10-17T03:15:35;11.63;;;6.20;;
5458;SDS011;2752;49.992;8.422;2022-10-17T03:18:02;15.50;;;6.40;;
5458;SDS011;2752;49.992;8.422;2022-10-17T03:20:29;10.10;;;6.20;;
5458;SDS011;2752;49.992;8.422;2022-10-17T03:22:57;10.90;;;6.90;;
5458;SDS011;2752;49.992;8.422;2022-10-17T03:25:23;12.10;;;6.60;;
5458;SDS011;2752;49.992;8.422;2022-10-17T03:27:50;18.70;;;6.47;;
5458;SDS011;2752;49.992;8.422;2022-10-17T03:30:17;17.47;;;6.13;;
5458;SDS011;2752;49.992;8.422;2022-10-17T03:32:44;15.80;;;6.07;;
5458;SDS011;2752;49.992;8.422;2022-10-17T03:35:11;12.40;;;6.70;;
5458;SDS011;2752;49.992;8.422;2022-10-17T03:37:37;13.47;;;6.50;;
5458;SDS011;2752;49.992;8.422;2022-10-17T03:40:06;10.03;;;5.40;;
5458;SDS011;2752;49.992;8.422;2022-10-17T03:42:33;11.73;;;6.90;;
5458;SDS011;2752;49.992;8.422;2022-10-17T03:44:59;17.70;;;6.80;;
5458;SDS011;2752;49.992;8.422;2022-10-17T03:47:26;14.10;;;6.30;;
5458;SDS011;2752;49.992;8.422;2022-10-17T03:49:53;19.03;;;7.20;;
5458;SDS011;2752;49.992;8.422;2022-10-17T03:52:20;12.40;;;7.33;;
5458;SDS011;2752;49.992;8.422;2022-10-17T03:54:48;12.23;;;6.57;;
5458;SDS011;2752;49.992;8.422;2022-10-17T03:57:16;9.47;;;6.33;;
5458;SDS011;2752;49.992;8.422;2022-10-17T03:59:42;14.57;;;7.97;;
5458;SDS011;2752;49.992;8.422;2022-10-17T04:02:09;14.63;;;6.53;;
5458;SDS011;2752;49.992;8.422;2022-10-17T04:04:36;14.53;;;7.23;;
5458;SDS011;2752;49.992;8.422;2022-10-17T04:07:02;16.63;;;6.93;;
5458;SDS011;2752;49.992;8.422;2022-10-17T04:09:29;19.00;;;7.77;;
5458;SDS011;2752;49.992;8.422;2022-10-17T04:11:56;18.90;;;7.00;;
5458;SDS011;2752;49.992;8.422;2022-10-17T04:14:24;13.27;;;6.80;;
5458;SDS011;2752;49.992;8.422;2022-10-17T04:16:50;12.60;;;6.97;;
5458;SDS011;2752;49.992;8.422;2022-10-17T04:19:17;7.70;;;5.57;;
5458;SDS011;2752;49.992;8.422;2022-10-17T04:21:44;19.13;;;6.30;;
5458;SDS011;2752;49.992;8.422;2022-10-17T04:24:12;22.83;;;6.73;;
5458;SDS011;2752;49.992;8.422;2022-10-17T04:26:38;10.87;;;5.77;;
5458;SDS011;2752;49.992;8.422;2022-10-17T04:29:05;15.53;;;6.07;;
5458;SDS011;2752;49.992;8.422;2022-10-17T04:31:33;14.27;;;7.33;;
5458;SDS011;2752;49.992;8.422;2022-10-17T04:34:00;19.13;;;6.97;;
5458;SDS011;2752;49.992;8.422;2022-10-17T04:36:26;12.80;;;6.47;;
5458;SDS011;2752;49.992;8.422;2022-10-17T04:38:53;22.87;;;7.20;;
5458;SDS011;2752;49.992;8.422;2022-10-17T04:41:20;11.60;;;6.97;;
5458;SDS011;2752;49.992;8.422;2022-10-17T04:43:46;13.50;;;6.80;;
5458;SDS011;2752;49.992;8.422;2022-10-17T04:46:14;15.37;;;6.83;;
5458;SDS011;2752;49.992;8.422;2022-10-17T04:48:42;19.70;;;6.90;;
5458;SDS011;2752;49.992;8.422;2022-10-17T04:51:09;13.23;;;6.30;;
5458;SDS011;2752;49.992;8.422;2022-10-17T04:53:37;13.87;;;6.80;;
5458;SDS011;2752;49.992;8.422;2022-10-17T04:56:08;18.43;;;6.73;;
5458;SDS011;2752;49.992;8.422;2022-10-17T04:58:37;18.70;;;8.17;;
5458;SDS011;2752;49.992;8.422;2022-10-17T05:01:05;21.57;;;6.80;;
5458;SDS011;2752;49.992;8.422;2022-10-17T05:03:33;17.50;;;6.70;;
5458;SDS011;2752;49.992;8.422;2022-10-17T05:06:05;12.90;;;6.05;;
5458;SDS011;2752;49.992;8.422;2022-10-17T05:08:32;31.07;;;8.03;;
5458;SDS011;2752;49.992;8.422;2022-10-17T05:11:00;19.17;;;6.70;;
5458;SDS011;2752;49.992;8.422;2022-10-17T05:13:27;22.53;;;7.07;;
5458;SDS011;2752;49.992;8.422;2022-10-17T05:15:56;13.33;;;6.90;;
5458;SDS011;2752;49.992;8.422;2022-10-17T05:18:23;32.03;;;7.87;;
5458;SDS011;2752;49.992;8.422;2022-10-17T05:20:50;17.70;;;6.93;;
5458;SDS011;2752;49.992;8.422;2022-10-17T05:23:18;17.40;;;7.93;;
5458;SDS011;2752;49.992;8.422;2022-10-17T05:25:45;21.17;;;9.17;;
5458;SDS011;2752;49.992;8.422;2022-10-17T05:28:11;19.03;;;7.30;;
5458;SDS011;2752;49.992;8.422;2022-10-17T05:30:38;15.53;;;7.17;;
5458;SDS011;2752;49.992;8.422;2022-10-17T05:33:05;13.63;;;6.67;;
5458;SDS011;2752;49.992;8.422;2022-10-17T05:35:32;20.10;;;6.50;;
5458;SDS011;2752;49.992;8.422;2022-10-17T05:37:58;14.33;;;7.10;;
5458;SDS011;2752;49.992;8.422;2022-10-17T05:40:27;15.70;;;6.27;;
5458;SDS011;2752;49.992;8.422;2022-10-17T05:42:53;24.80;;;9.00;;
5458;SDS011;2752;49.992;8.422;2022-10-17T05:45:20;22.87;;;6.93;;
5458;SDS011;2752;49.992;8.422;2022-10-17T05:47:46;18.80;;;7.80;;
5458;SDS011;2752;49.992;8.422;2022-10-17T05:50:13;18.00;;;6.83;;
5458;SDS011;2752;49.992;8.422;2022-10-17T05:52:40;14.33;;;7.17;;
5458;SDS011;2752;49.992;8.422;2022-10-17T05:55:07;11.73;;;6.57;;
5458;SDS011;2752;49.992;8.422;2022-10-17T05:57:35;19.23;;;7.30;;
5458;SDS011;2752;49.992;8.422;2022-10-17T06:00:03;23.37;;;10.70;;
5458;SDS011;2752;49.992;8.422;2022-10-17T06:02:31;19.57;;;8.60;;
5458;SDS011;2752;49.992;8.422;2022-10-17T06:04:57;13.67;;;7.10;;
5458;SDS011;2752;49.992;8.422;2022-10-17T06:07:24;10.70;;;6.83;;
5458;SDS011;2752;49.992;8.422;2022-10-17T06:09:51;18.70;;;8.17;;
5458;SDS011;2752;49.992;8.422;2022-10-17T06:12:17;19.80;;;7.43;;
5458;SDS011;2752;49.992;8.422;2022-10-17T06:14:45;33.40;;;7.03;;
5458;SDS011;2752;49.992;8.422;2022-10-17T06:17:12;12.30;;;7.23;;
5458;SDS011;2752;49.992;8.422;2022-10-17T06:19:38;16.23;;;7.30;;
5458;SDS011;2752;49.992;8.422;2022-10-17T06:22:06;12.50;;;6.90;;
5458;SDS011;2752;49.992;8.422;2022-10-17T06:24:32;13.63;;;6.80;;
5458;SDS011;2752;49.992;8.422;2022-10-17T06:26:59;17.67;;;6.60;;
5458;SDS011;2752;49.992;8.422;2022-10-17T06:29:26;14.80;;;6.60;;
5458;SDS011;2752;49.992;8.422;2022-10-17T06:31:54;16.70;;;6.67;;
5458;SDS011;2752;49.992;8.422;2022-10-17T06:34:20;11.23;;;6.73;;
5458;SDS011;2752;49.992;8.422;2022-10-17T06:36:47;13.90;;;7.27;;
5458;SDS011;2752;49.992;8.422;2022-10-17T06:39:14;16.27;;;7.07;;
5458;SDS011;2752;49.992;8.422;2022-10-17T06:41:41;10.83;;;7.00;;
5458;SDS011;2752;49.992;8.422;2022-10-17T06:44:08;20.37;;;7.63;;
5458;SDS011;2752;49.992;8.422;2022-10-17T06:46:36;18.80;;;7.07;;
5458;SDS011;2752;49.992;8.422;2022-10-17T06:49:04;19.10;;;8.30;;
5458;SDS011;2752;49.992;8.422;2022-10-17T06:51:33;30.20;;;7.20;;
5458;SDS011;2752;49.992;8.422;2022-10-17T06:54:01;24.70;;;8.63;;
5458;SDS011;2752;49.992;8.422;2022-10-17T06:56:28;19.67;;;7.37;;
5458;SDS011;2752;49.992;8.422;2022-10-17T06:58:55;13.27;;;7.37;;
5458;SDS011;2752;49.992;8.422;2022-10-17T07:01:21;15.60;;;7.57;;
5458;SDS011;2752;49.992;8.422;2022-10-17T07:03:48;25.57;;;8.83;;
5458;SDS011;2752;49.992;8.422;2022-10-17T07:06:16;15.17;;;7.93;;
5458;SDS011;2752;49.992;8.422;2022-10-17T07:08:43;16.00;;;7.87;;
5458;SDS011;2752;49.992;8.422;2022-10-17T07:11:11;15.90;;;7.57;;
5458;SDS011;2752;49.992;8.422;2022-10-17T07:13:40;19.73;;;8.47;;
5458;SDS011;2752;49.992;8.422;2022-10-17T07:16:07;17.60;;;8.50;;
5458;SDS011;2752;49.992;8.422;2022-10-17T07:18:34;21.93;;;9.17;;
5458;SDS011;2752;49.992;8.422;2022-10-17T07:21:01;16.33;;;8.67;;
5458;SDS011;2752;49.992;8.422;2022-10-17T07:23:30;25.23;;;8.97;;
5458;SDS011;2752;49.992;8.422;2022-10-17T07:25:58;19.67;;;8.50;;
5458;SDS011;2752;49.992;8.422;2022-10-17T07:28:26;20.30;;;10.00;;
5458;SDS011;2752;49.992;8.422;2022-10-17T07:30:53;18.70;;;10.70;;
5458;SDS011;2752;49.992;8.422;2022-10-17T07:33:20;16.70;;;9.20;;
5458;SDS011;2752;49.992;8.422;2022-10-17T07:35:48;26.60;;;11.67;;
5458;SDS011;2752;49.992;8.422;2022-10-17T07:38:16;23.97;;;10.33;;
5458;SDS011;2752;49.992;8.422;2022-10-17T07:40:44;16.13;;;9.80;;
5458;SDS011;2752;49.992;8.422;2022-10-17T07:43:11;18.00;;;10.93;;
5458;SDS011;2752;49.992;8.422;2022-10-17T07:45:39;19.53;;;10.23;;
5458;SDS011;2752;49.992;8.422;2022-10-17T07:48:06;20.80;;;10.83;;
5458;SDS011;2752;49.992;8.422;2022-10-17T07:50:32;26.40;;;10.43;;
5458;SDS011;2752;49.992;8.422;2022-10-17T07:52:59;16.60;;;9.50;;
5458;SDS011;2752;49.992;8.422;2022-10-17T07:55:26;15.10;;;9.00;;
5458;SDS011;2752;49.992;8.422;2022-10-17T07:57:54;24.60;;;12.10;;
5458;SDS011;2752;49.992;8.422;2022-10-17T08:00:21;21.63;;;9.93;;
5458;SDS011;2752;49.992;8.422;2022-10-17T08:02:48;16.17;;;8.93;;
5458;SDS011;2752;49.992;8.422;2022-10-17T08:05:15;20.80;;;9.33;;
5458;SDS011;2752;49.992;8.422;2022-10-17T08:07:42;19.63;;;10.03;;
5458;SDS011;2752;49.992;8.422;2022-10-17T08:10:09;22.97;;;9.90;;
5458;SDS011;2752;49.992;8.422;2022-10-17T08:12:37;15.80;;;9.80;;
5458;SDS011;2752;49.992;8.422;2022-10-17T08:15:05;17.80;;;9.33;;
5458;SDS011;2752;49.992;8.422;2022-10-17T08:17:33;13.70;;;8.27;;
5458;SDS011;2752;49.992;8.422;2022-10-17T08:20:01;16.93;;;7.70;;
5458;SDS011;2752;49.992;8.422;2022-10-17T08:22:27;14.87;;;6.93;;
5458;SDS011;2752;49.992;8.422;2022-10-17T08:24:54;22.03;;;7.40;;
5458;SDS011;2752;49.992;8.422;2022-10-17T08:27:21;9.60;;;5.63;;
5458;SDS011;2752;49.992;8.422;2022-10-17T08:29:51;23.33;;;5.53;;
5458;SDS011;2752;49.992;8.422;2022-10-17T08:32:19;12.60;;;6.00;;
5458;SDS011;2752;49.992;8.422;2022-10-17T08:34:48;11.37;;;5.30;;
5458;SDS011;2752;49.992;8.422;2022-10-17T08:37:15;8.30;;;5.40;;
5458;SDS011;2752;49.992;8.422;2022-10-17T08:39:42;18.17;;;5.77;;
5458;SDS011;2752;49.992;8.422;2022-10-17T08:42:16;10.80;;;4.70;;
5458;SDS011;2752;49.992;8.422;2022-10-17T08:45:12;15.43;;;4.80;;
5458;SDS011;2752;49.992;8.422;2022-10-17T08:47:48;7.43;;;4.93;;
5458;SDS011;2752;49.992;8.422;2022-10-17T08:50:20;12.53;;;5.20;;
5458;SDS011;2752;49.992;8.422;2022-10-17T08:52:52;8.30;;;5.20;;
5458;SDS011;2752;49.992;8.422;2022-10-17T08:55:27;10.30;;;4.80;;
5458;SDS011;2752;49.992;8.422;2022-10-17T08:57:58;17.53;;;4.70;;
5458;SDS011;2752;49.992;8.422;2022-10-17T09:00:25;6.60;;;4.90;;
5458;SDS011;2752;49.992;8.422;2022-10-17T09:03:00;8.00;;;4.17;;
5458;SDS011;2752;49.992;8.422;2022-10-17T09:05:39;10.27;;;4.70;;
5458;SDS011;2752;49.992;8.422;2022-10-17T09:08:17;9.30;;;5.30;;
5458;SDS011;2752;49.992;8.422;2022-10-17T09:10:55;10.07;;;5.43;;
5458;SDS011;2752;49.992;8.422;2022-10-17T09:13:32;14.87;;;6.23;;
5458;SDS011;2752;49.992;8.422;2022-10-17T09:16:12;9.50;;;5.20;;
5458;SDS011;2752;49.992;8.422;2022-10-17T09:18:53;15.97;;;5.03;;
5458;SDS011;2752;49.992;8.422;2022-10-17T09:21:26;14.80;;;5.30;;
5458;SDS011;2752;49.992;8.422;2022-10-17T09:24:02;8.23;;;4.37;;
5458;SDS011;2752;49.992;8.422;2022-10-17T09:26:35;6.87;;;4.40;;
5458;SDS011;2752;49.992;8.422;2022-10-17T09:29:04;6.67;;;4.50;;
5458;SDS011;2752;49.992;8.422;2022-10-17T09:31:41;8.93;;;4.17;;
5458;SDS011;2752;49.992;8.422;2022-10-17T09:34:13;9.90;;;4.97;;
5458;SDS011;2752;49.992;8.422;2022-10-17T09:36:41;8.93;;;5.00;;
5458;SDS011;2752;49.992;8.422;2022-10-17T09:39:10;12.00;;;4.80;;
5458;SDS011;2752;49.992;8.422;2022-10-17T09:41:40;7.33;;;4.40;;
5458;SDS011;2752;49.992;8.422;2022-10-17T09:44:19;14.27;;;4.70;;
5458;SDS011;2752;49.992;8.422;2022-10-17T09:46:51;12.27;;;5.83;;
5458;SDS011;2752;49.992;8.422;2022-10-17T09:49:36;9.00;;;4.10;;
5458;SDS011;2752;49.992;8.422;2022-10-17T09:52:05;9.40;;;4.70;;
5458;SDS011;2752;49.992;8.422;2022-10-17T09:54:41;7.13;;;4.00;;
5458;SDS011;2752;49.992;8.422;2022-10-17T09:57:10;20.60;;;4.23;;
5458;SDS011;2752;49.992;8.422;2022-10-17T09:59:38;12.70;;;3.70;;
5458;SDS011;2752;49.992;8.422;2022-10-17T10:02:07;6.80;;;3.40;;
5458;SDS011;2752;49.992;8.422;2022-10-17T10:04:56;8.37;;;4.30;;
5458;SDS011;2752;49.992;8.422;2022-10-17T10:07:25;9.67;;;3.63;;
5458;SDS011;2752;49.992;8.422;2022-10-17T10:09:54;9.67;;;3.37;;
5458;SDS011;2752;49.992;8.422;2022-10-17T10:12:22;7.03;;;3.30;;
5458;SDS011;2752;49.992;8.422;2022-10-17T10:14:50;20.73;;;4.23;;
5458;SDS011;2752;49.992;8.422;2022-10-17T10:20:28;8.10;;;3.67;;
5458;SDS011;2752;49.992;8.422;2022-10-17T10:23:03;5.77;;;3.77;;
5458;SDS011;2752;49.992;8.422;2022-10-17T10:25:37;8.20;;;3.93;;
5458;SDS011;2752;49.992;8.422;2022-10-17T10:28:14;7.90;;;4.20;;
5458;SDS011;2752;49.992;8.422;2022-10-17T10:30:44;4.20;;;3.07;;
5458;SDS011;2752;49.992;8.422;2022-10-17T10:33:13;7.80;;;3.60;;
5458;SDS011;2752;49.992;8.422;2022-10-17T10:35:41;14.00;;;3.83;;
5458;SDS011;2752;49.992;8.422;2022-10-17T10:38:08;6.40;;;3.70;;
5458;SDS011;2752;49.992;8.422;2022-10-17T10:40:43;13.50;;;3.73;;
5458;SDS011;2752;49.992;8.422;2022-10-17T10:43:19;14.20;;;4.00;;
5458;SDS011;2752;49.992;8.422;2022-10-17T10:45:48;8.23;;;3.10;;
5458;SDS011;2752;49.992;8.422;2022-10-17T10:48:20;9.40;;;3.23;;
5458;SDS011;2752;49.992;8.422;2022-10-17T10:50:50;10.90;;;2.90;;
5458;SDS011;2752;49.992;8.422;2022-10-17T10:53:26;8.07;;;3.60;;
5458;SDS011;2752;49.992;8.422;2022-10-17T10:55:59;6.03;;;3.33;;
5458;SDS011;2752;49.992;8.422;2022-10-17T10:58:32;9.07;;;3.77;;
5458;SDS011;2752;49.992;8.422;2022-10-17T11:01:08;11.40;;;3.60;;
5458;SDS011;2752;49.992;8.422;2022-10-17T11:03:40;9.33;;;3.70;;
5458;SDS011;2752;49.992;8.422;2022-10-17T11:06:16;17.17;;;3.67;;
5458;SDS011;2752;49.992;8.422;2022-10-17T11:08:47;11.00;;;3.23;;
5458;SDS011;2752;49.992;8.422;2022-10-17T11:11:19;6.70;;;3.53;;
5458;SDS011;2752;49.992;8.422;2022-10-17T11:13:56;8.73;;;4.10;;
5458;SDS011;2752;49.992;8.422;2022-10-17T11:16:28;6.80;;;2.97;;
5458;SDS011;2752;49.992;8.422;2022-10-17T11:19:02;7.63;;;3.33;;
5458;SDS011;2752;49.992;8.422;2022-10-17T11:21:37;12.77;;;3.37;;
5458;SDS011;2752;49.992;8.422;2022-10-17T11:24:13;13.13;;;3.30;;
5458;SDS011;2752;49.992;8.422;2022-10-17T11:26:51;6.00;;;2.77;;
5458;SDS011;2752;49.992;8.422;2022-10-17T11:29:21;14.13;;;4.57;;
5458;SDS011;2752;49.992;8.422;2022-10-17T11:31:52;9.07;;;3.60;;
5458;SDS011;2752;49.992;8.422;2022-10-17T11:34:24;13.70;;;5.00;;
5458;SDS011;2752;49.992;8.422;2022-10-17T11:36:53;6.97;;;3.70;;
5458;SDS011;2752;49.992;8.422;2022-10-17T11:39:26;5.67;;;3.33;;
5458;SDS011;2752;49.992;8.422;2022-10-17T11:41:56;12.93;;;2.97;;
5458;SDS011;2752;49.992;8.422;2022-10-17T11:44:29;11.80;;;3.27;;
5458;SDS011;2752;49.992;8.422;2022-10-17T11:47:00;12.23;;;3.30;;
5458;SDS011;2752;49.992;8.422;2022-10-17T11:49:33;13.83;;;5.23;;
5458;SDS011;2752;49.992;8.422;2022-10-17T11:52:08;6.70;;;3.17;;
5458;SDS011;2752;49.992;8.422;2022-10-17T11:54:47;8.87;;;3.27;;
5458;SDS011;2752;49.992;8.422;2022-10-17T11:57:31;18.67;;;3.57;;
5458;SDS011;2752;49.992;8.422;2022-10-17T12:00:17;5.53;;;2.73;;
5458;SDS011;2752;49.992;8.422;2022-10-17T12:03:02;15.00;;;3.40;;
5458;SDS011;2752;49.992;8.422;2022-10-17T12:05:40;6.07;;;2.70;;
5458;SDS011;2752;49.992;8.422;2022-10-17T12:08:12;4.67;;;3.10;;
5458;SDS011;2752;49.992;8.422;2022-10-17T12:10:50;6.80;;;3.43;;
5458;SDS011;2752;49.992;8.422;2022-10-17T12:22:02;5.90;;;2.93;;
5458;SDS011;2752;49.992;8.422;2022-10-17T12:24:51;9.23;;;3.03;;
5458;SDS011;2752;49.992;8.422;2022-10-17T12:27:30;9.03;;;3.10;;
5458;SDS011;2752;49.992;8.422;2022-10-17T12:29:59;8.00;;;3.07;;
5458;SDS011;2752;49.992;8.422;2022-10-17T12:32:27;4.93;;;2.77;;
5458;SDS011;2752;49.992;8.422;2022-10-17T12:34:54;4.90;;;2.67;;
5458;SDS011;2752;49.992;8.422;2022-10-17T12:40:51;8.70;;;3.23;;
5458;SDS011;2752;49.992;8.422;2022-10-17T12:49:23;5.83;;;3.10;;
5458;SDS011;2752;49.992;8.422;2022-10-17T12:55:17;5.10;;;2.53;;
5458;SDS011;2752;49.992;8.422;2022-10-17T12:57:52;7.83;;;2.30;;
5458;SDS011;2752;49.992;8.422;2022-10-17T13:00:25;5.83;;;2.47;;
5458;SDS011;2752;49.992;8.422;2022-10-17T13:03:01;7.37;;;2.60;;
5458;SDS011;2752;49.992;8.422;2022-10-17T13:05:31;4.80;;;2.60;;
5458;SDS011;2752;49.992;8.422;2022-10-17T13:08:00;5.53;;;2.50;;
5458;SDS011;2752;49.992;8.422;2022-10-17T13:10:30;5.30;;;2.97;;
5458;SDS011;2752;49.992;8.422;2022-10-17T13:13:03;17.43;;;4.60;;
5458;SDS011;2752;49.992;8.422;2022-10-17T13:15:33;8.20;;;2.30;;
5458;SDS011;2752;49.992;8.422;2022-10-17T13:18:01;6.53;;;2.63;;
5458;SDS011;2752;49.992;8.422;2022-10-17T13:20:29;4.60;;;1.90;;
5458;SDS011;2752;49.992;8.422;2022-10-17T13:22:57;5.77;;;2.43;;
5458;SDS011;2752;49.992;8.422;2022-10-17T13:25:24;5.40;;;2.40;;
5458;SDS011;2752;49.992;8.422;2022-10-17T13:28:03;9.73;;;2.80;;
5458;SDS011;2752;49.992;8.422;2022-10-17T13:30:32;4.53;;;2.20;;
5458;SDS011;2752;49.992;8.422;2022-10-17T13:33:01;10.70;;;2.33;;
5458;SDS011;2752;49.992;8.422;2022-10-17T13:35:29;9.03;;;2.60;;
5458;SDS011;2752;49.992;8.422;2022-10-17T13:37:59;6.10;;;2.57;;
5458;SDS011;2752;49.992;8.422;2022-10-17T13:40:28;17.17;;;2.73;;
5458;SDS011;2752;49.992;8.422;2022-10-17T13:42:56;8.80;;;2.50;;
5458;SDS011;2752;49.992;8.422;2022-10-17T13:45:28;5.23;;;2.30;;
5458;SDS011;2752;49.992;8.422;2022-10-17T13:47:57;6.77;;;2.63;;
5458;SDS011;2752;49.992;8.422;2022-10-17T13:50:33;5.43;;;2.30;;
5458;SDS011;2752;49.992;8.422;2022-10-17T13:53:07;11.73;;;2.37;;
5458;SDS011;2752;49.992;8.422;2022-10-17T13:55:52;7.17;;;2.27;;
5458;SDS011;2752;49.992;8.422;2022-10-17T13:58:20;9.27;;;2.40;;
5458;SDS011;2752;49.992;8.422;2022-10-17T14:00:49;8.57;;;2.80;;
5458;SDS011;2752;49.992;8.422;2022-10-17T14:03:17;8.23;;;2.17;;
5458;SDS011;2752;49.992;8.422;2022-10-17T14:05:57;7.13;;;3.33;;
5458;SDS011;2752;49.992;8.422;2022-10-17T14:08:30;9.63;;;2.60;;
5458;SDS011;2752;49.992;8.422;2022-10-17T14:10:58;4.43;;;2.27;;
5458;SDS011;2752;49.992;8.422;2022-10-17T14:13:26;10.03;;;2.33;;
5458;SDS011;2752;49.992;8.422;2022-10-17T14:16:00;11.57;;;2.40;;
5458;SDS011;2752;49.992;8.422;2022-10-17T14:18:28;9.63;;;2.50;;
5458;SDS011;2752;49.992;8.422;2022-10-17T14:20:56;6.57;;;2.70;;
5458;SDS011;2752;49.992;8.422;2022-10-17T14:23:31;3.30;;;2.10;;
5458;SDS011;2752;49.992;8.422;2022-10-17T14:26:07;5.30;;;2.50;;
5458;SDS011;2752;49.992;8.422;2022-10-17T14:28:36;4.50;;;2.63;;
5458;SDS011;2752;49.992;8.422;2022-10-17T14:31:09;12.50;;;3.40;;
5458;SDS011;2752;49.992;8.422;2022-10-17T14:33:43;4.10;;;2.27;;
5458;SDS011;2752;49.992;8.422;2022-10-17T14:36:12;5.47;;;2.67;;
5458;SDS011;2752;49.992;8.422;2022-10-17T14:38:43;5.43;;;2.90;;
5458;SDS011;2752;49.992;8.422;2022-10-17T14:41:12;7.67;;;2.70;;
5458;SDS011;2752;49.992;8.422;2022-10-17T14:43:43;5.40;;;3.17;;
5458;SDS011;2752;49.992;8.422;2022-10-17T14:46:18;11.10;;;2.73;;
5458;SDS011;2752;49.992;8.422;2022-10-17T14:48:45;11.30;;;2.67;;
5458;SDS011;2752;49.992;8.422;2022-10-17T14:51:17;6.43;;;2.70;;
5458;SDS011;2752;49.992;8.422;2022-10-17T14:53:58;13.97;;;3.30;;
5458;SDS011;2752;49.992;8.422;2022-10-17T14:56:34;8.60;;;2.40;;
5458;SDS011;2752;49.992;8.422;2022-10-17T14:59:04;11.27;;;3.43;;
5458;SDS011;2752;49.992;8.422;2022-10-17T15:01:33;10.07;;;4.17;;
5458;SDS011;2752;49.992;8.422;2022-10-17T15:04:00;4.80;;;2.60;;
5458;SDS011;2752;49.992;8.422;2022-10-17T15:06:27;13.97;;;4.07;;
5458;SDS011;2752;49.992;8.422;2022-10-17T15:08:55;7.77;;;3.50;;
5458;SDS011;2752;49.992;8.422;2022-10-17T15:11:22;5.37;;;2.60;;
5458;SDS011;2752;49.992;8.422;2022-10-17T15:13:49;6.87;;;2.63;;
5458;SDS011;2752;49.992;8.422;2022-10-17T15:16:17;12.10;;;2.90;;
5458;SDS011;2752;49.992;8.422;2022-10-17T15:18:47;7.83;;;2.30;;
5458;SDS011;2752;49.992;8.422;2022-10-17T15:21:15;8.13;;;2.93;;
5458;SDS011;2752;49.992;8.422;2022-10-17T15:23:43;5.17;;;3.10;;
5458;SDS011;2752;49.992;8.422;2022-10-17T15:26:14;4.77;;;2.80;;
5458;SDS011;2752;49.992;8.422;2022-10-17T15:28:43;8.40;;;2.90;;
5458;SDS011;2752;49.992;8.422;2022-10-17T15:31:10;13.73;;;3.50;;
5458;SDS011;2752;49.992;8.422;2022-10-17T15:33:38;11.33;;;3.50;;
5458;SDS011;2752;49.992;8.422;2022-10-17T15:36:13;16.27;;;3.30;;
5458;SDS011;2752;49.992;8.422;2022-10-17T15:38:44;11.77;;;3.40;;
5458;SDS011;2752;49.992;8.422;2022-10-17T15:41:11;6.40;;;3.80;;
5458;SDS011;2752;49.992;8.422;2022-10-17T15:43:38;23.70;;;5.27;;
5458;SDS011;2752;49.992;8.422;2022-10-17T15:46:08;8.63;;;3.87;;
5458;SDS011;2752;49.992;8.422;2022-10-17T15:48:37;11.93;;;3.20;;
5458;SDS011;2752;49.992;8.422;2022-10-17T15:51:03;5.30;;;2.77;;
5458;SDS011;2752;49.992;8.422;2022-10-17T15:53:32;9.80;;;4.07;;